Tiempo atmosférico en la estación meteorológica de Cartaya, Huelva (15 m.)

Fecha
DESCASC
Temp. máxima en grados centígrados (hora)
DESCASC
Temp. mínima en grados centígrados (hora)
DESCASC
Temp. media en grados centígrados
DESCASC
Racha de viento máxima en m/sg (hora)
DESCASC
Velocidad máxima media en intervalos de 10 minutos(hora)
DESCASC
Precipitaciones diarias en mm
DESCASC
Precipitaciones de 00:00 a 06:00 en mm
DESCASC
Precipitaciones de 06:00 a 12:00 en mm
DESCASC
Precipitaciones de 12:00 a 18:00 en mm
DESCASC
Precipitaciones de 18:00 a 24:00 en mm
DESCASC
23-11-2017 20.1 (14:00) 11.3 (06:10) 15.7 8.33 (13:40) 4.72 (15:00) 0 0 0 0 0
22-11-2017 19.8 (13:40) 6.4 (07:40) 13.1 6.67 (13:10) 3.89 (13:20) 0 0 0 0 0
21-11-2017 20.2 (13:30) 3.4 (07:50) 11.8 5.28 (11:10) 3.06 (12:10) 0 0 0 0 0
20-11-2017 23.2 (14:30) 6.7 (07:10) 15 4.72 (10:20) 2.78 (10:20) 0 0 0 0 0
19-11-2017 19.8 (15:10) 5.2 (00:00) 12.5 5.28 (11:50) 3.06 (11:00) 0 0 0 0 0
18-11-2017 18.9 (14:50) 5.7 (00:00) 12.3 3.61 (07:00) 2.78 (12:20) 0 0 0 0 0
17-11-2017 19.4 (14:00) 6.5 (00:00) 12.9 4.17 (13:20) 2.78 (12:50) 0 0 0 0 0
16-11-2017 19.9 (13:20) 5 (00:00) 12.4 4.72 (10:30) 2.78 (13:30) 0 0 0 0 0
15-11-2017 20.8 (14:10) 6.7 (00:00) 13.7 7.22 (10:00) 3.61 (10:20) 0 0 0 0 0
14-11-2017 21.4 (15:30) 5.3 (00:00) 13.3 7.5 (11:50) 3.61 (11:40) 0 0 0 0 0
13-11-2017 21.9 (16:20) 9.3 (00:00) 15.6 8.89 (12:50) 5 (12:50) 0 0 0 0 0
12-11-2017 24 (15:40) 3.9 (00:00) 14 8.06 (17:30) 5 (16:30) 0 0 0 0 0
11-11-2017 22.2 (13:50) 4.9 (00:00) 13.6 4.72 (09:50) 3.33 (15:00) 0 0 0 0 0
10-11-2017 21.5 (16:00) 5.7 (00:00) 13.6 7.22 (13:30) 3.61 (15:10) 0 0 0 0 0
09-11-2017 20.2 (15:40) 8.2 (00:00) 14.2 9.44 (13:20) 5 (13:50) 0 0 0 0 0
08-11-2017 23 (15:50) 7.3 (00:00) 15.2 7.22 (16:40) 3.61 (16:00) 0 0 0 0 0
07-11-2017 23.2 (16:00) 8 (00:00) 15.6 7.22 (12:10) 3.89 (12:00) 0 0 0 0 0
06-11-2017 21.8 (15:20) 9.5 (00:00) 15.6 10 (14:40) 5.56 (14:40) 0 0 0 0 0
05-11-2017 21.5 (16:10) 11.4 (00:00) 16.4 8.33 (17:40) 4.44 (16:00) 0 0 0 0 0
04-11-2017 21.4 (13:40) 13.8 (00:00) 17.6 10.56 (13:50) 6.39 (14:00) 5.2 5.2 0 0 0
03-11-2017 22.2 (15:20) 13.2 (00:00) 17.7 12.5 (21:40) 5 (21:40) 5.4 0.8 0 3.4 1.2
02-11-2017 22.2 (10:50) 18.8 (23:59) 20.5 11.11 (00:40) 6.11 (02:20) 0.2 0 0 0 0.2
01-11-2017 23 (15:10) 12.1 (00:00) 17.6 10 (23:59) 5.56 (23:59) 0 0 0 0 0
31-10-2017 23.9 (15:50) 11.2 (00:00) 17.5 6.94 (23:30) 3.33 (23:30) 0 0 0 0 0
30-10-2017 22.5 (14:30) 10.2 (00:00) 16.3 5 (12:10) 3.33 (12:10) 0 0 0 0 0
29-10-2017 24.1 (15:00) 11.6 (00:00) 17.9 4.72 (17:10) 3.33 (16:50) 0 0 0 0 0
28-10-2017 25.9 (15:20) 9.7 (00:00) 17.8 6.11 (17:00) 3.61 (18:00) 0 0 0 0 0
27-10-2017 27.6 (13:40) 9.4 (00:00) 18.5 5 (09:40) 2.78 (11:10) 0 0 0 0 0
26-10-2017 28 (14:40) 11.7 (00:00) 19.8 6.39 (11:10) 3.61 (11:30) 0 0 0 0 0
25-10-2017 24.6 (16:40) 11.2 (00:00) 17.9 7.5 (13:30) 4.44 (13:30) 0 0 0 0 0

Gráficas

Temp. máximas Temp. mínimas Temp. medias Precipitaciones Rachas de viento máximas Velocidades máximas media en intervalos de 10 minutos

Datos horarios

Fecha y hora oficial Temperatura (ºC) Velocidad del viento (km/h) Dirección del viento Racha (km/h) Dirección de racha Precipitación (mm) Presión (hPa) Tendencia (hPa) Humedad (%)
2017-11-23 23:00:00 13.1 3 Sudeste 7 Sudeste 0 -- -- 97
2017-11-23 22:00:00 14.6 3 Sudeste 8 Sur 0 -- -- 97
2017-11-23 21:00:00 14.6 4 Este 6 Sur 0 -- -- 95
2017-11-23 20:00:00 18 5 Sur 14 Sur 0 -- -- 88
2017-11-23 19:00:00 18.5 8 Sur 17 Sur 0 -- -- 86
2017-11-23 18:00:00 18.6 8 Sur 17 Sur 0 -- -- 86
2017-11-23 17:00:00 18.2 9 Sudeste 24 Sur 0 -- -- 90
2017-11-23 16:00:00 19.2 13 Sur 28 Sur 0 -- -- 82
2017-11-23 15:00:00 19.5 17 Sur 30 Sur 0 -- -- 78
2017-11-23 14:00:00 20.1 12 Sudeste 30 Sur 0 -- -- 72
2017-11-23 13:00:00 19.9 13 Sur 26 Sudeste 0 -- -- 72
2017-11-23 12:00:00 18 13 Sudeste 27 Sudeste 0 -- -- 70
2017-11-23 11:00:00 16 13 Sudeste 25 Sudeste 0 -- -- 79
2017-11-23 10:00:00 15 12 Sudeste 23 Sudeste 0 -- -- 85
2017-11-23 09:00:00 12.2 9 Este 17 Sudeste 0 -- -- 97
2017-11-23 08:00:00 11.3 5 Este 12 Sudeste 0 -- -- 95
2017-11-23 07:00:00 11.6 7 Este 12 Sudeste 0 -- -- 94
2017-11-23 06:00:00 11.4 4 Este 12 Este 0 -- -- 97
2017-11-23 05:00:00 12.1 8 Este 13 Este 0 -- -- 99
2017-11-23 04:00:00 13.2 6 Este 10 Este 0 -- -- 100
2017-11-23 03:00:00 13.3 5 Este 9 Este 0 -- -- 100
2017-11-23 02:00:00 13.3 5 Este 9 Este 0 -- -- 99
2017-11-23 01:00:00 13.2 4 Este 9 Este 0 -- -- 98
2017-11-23 00:00:00 13.3 4 Este 10 Este 0 -- -- 97
2017-11-22 23:00:00 13.4 6 Este 10 Este 0 -- -- 97
2017-11-22 22:00:00 13.3 6 Este 10 Este 0 -- -- 96
2017-11-22 21:00:00 13.3 6 Este 9 Este 0 -- -- 96
2017-11-22 20:00:00 13.6 4 Este 8 Este 0 -- -- 93
2017-11-22 19:00:00 15.1 3 Este 9 Sur 0 -- -- 90
2017-11-22 18:00:00 17.4 6 Sur 14 Sudeste 0 -- -- 83
2017-11-22 17:00:00 18.4 9 Sur 15 Sur 0 -- -- 72
2017-11-22 16:00:00 19 8 Sur 18 Sur 0 -- -- 62
2017-11-22 15:00:00 19.4 10 Sur 17 Sur 0 -- -- 52
2017-11-22 14:00:00 19.7 10 Sur 24 Sur 0 -- -- 41
2017-11-22 13:00:00 19.1 10 Sudeste 21 Sudeste 0 -- -- 42
2017-11-22 12:00:00 17.5 5 Sudeste 9 Este 0 -- -- 46
2017-11-22 11:00:00 14.9 5 Este 16 Sudeste 0 -- -- 53
2017-11-22 10:00:00 11.6 5 Este 16 Este 0 -- -- 63
2017-11-22 09:00:00 7.9 9 Este 16 Este 0 -- -- 73
2017-11-22 08:00:00 6.4 8 Este 14 Este 0 -- -- 80
2017-11-22 07:00:00 7 9 Este 14 Este 0 -- -- 81
2017-11-22 06:00:00 7.4 8 Este 14 Este 0 -- -- 79
2017-11-22 05:00:00 7 7 Nordeste 12 Este 0 -- -- 83
2017-11-22 04:00:00 7.3 8 Este 12 Nordeste 0 -- -- 83
2017-11-22 03:00:00 7.2 7 Este 13 Este 0 -- -- 86
2017-11-22 02:00:00 7.7 7 Este 12 Este 0 -- -- 91
2017-11-22 01:00:00 8.3 8 Este 13 Este 0 -- -- 97
2017-11-22 00:00:00 8.1 6 Este 10 Este 0 -- -- 97
2017-11-21 23:00:00 8.5 7 Este 10 Este 0 -- -- 99
2017-11-21 22:00:00 7.6 6 Este 9 Este 0 -- -- 96
2017-11-21 21:00:00 8.5 5 Nordeste 7 Nordeste 0 -- -- 94
2017-11-21 20:00:00 9.7 4 Nordeste 5 Nordeste 0 -- -- 89
2017-11-21 19:00:00 12.7 0 Calma 4 Nordeste 0 -- -- 82
2017-11-21 18:00:00 18.1 4 Este 5 Sudeste 0 -- -- 69
2017-11-21 17:00:00 19.5 2 Sudoeste 14 Oeste 0 -- -- 60
2017-11-21 16:00:00 19.6 9 Oeste 18 Sudoeste 0 -- -- 58
2017-11-21 15:00:00 19.8 10 Oeste 15 Oeste 0 -- -- 55
2017-11-21 14:00:00 20.1 9 Oeste 12 Sur 0 -- -- 47
2017-11-21 13:00:00 20 10 Sur 19 Sudeste 0 -- -- 46
2017-11-21 12:00:00 18.7 9 Sudeste 19 Sudeste 0 -- -- 43
2017-11-21 11:00:00 15.9 9 Sudeste 17 Este 0 -- -- 48
2017-11-21 10:00:00 10.8 7 Este 14 Este 0 -- -- 66
2017-11-21 09:00:00 5.4 9 Este 15 Nordeste 0 -- -- 83
2017-11-21 08:00:00 3.8 7 Nordeste 10 Nordeste 0 -- -- 86
2017-11-21 07:00:00 3.7 5 Nordeste 9 Este 0 -- -- 86
2017-11-21 06:00:00 5.7 5 Este 11 Este 0 -- -- 81
2017-11-21 05:00:00 6.8 8 Este 14 Este 0 -- -- 77
2017-11-21 04:00:00 7.1 7 Este 11 Nordeste 0 -- -- 75
2017-11-21 03:00:00 7.8 6 Nordeste 12 Nordeste 0 -- -- 72
2017-11-21 02:00:00 8.1 7 Nordeste 13 Nordeste 0 -- -- 73
2017-11-21 01:00:00 8.4 7 Nordeste 13 Nordeste 0 -- -- 76
2017-11-21 00:00:00 8.2 8 Este 13 Este 0 -- -- 79
2017-11-20 23:00:00 7.6 7 Este 12 Este 0 -- -- 81
2017-11-20 22:00:00 8.3 6 Este 8 Este 0 -- -- 75
2017-11-20 21:00:00 8.2 4 Norte 6 Norte 0 -- -- 78
2017-11-20 20:00:00 9.6 5 Norte 6 Norte 0 -- -- 72
2017-11-20 19:00:00 13.1 4 Norte 6 Norte 0 -- -- 64
2017-11-20 18:00:00 19.5 4 Oeste 9 Oeste 0 -- -- 54
2017-11-20 17:00:00 20.8 5 Oeste 8 Sudoeste 0 -- -- 46
2017-11-20 16:00:00 20.5 7 Oeste 12 Sudoeste 0 -- -- 52
2017-11-20 15:00:00 21.6 9 Oeste 16 Este 0 -- -- 49
2017-11-20 14:00:00 22.9 4 Sudeste 13 Sudeste 0 -- -- 33
2017-11-20 13:00:00 21 6 Sudeste 13 Sudeste 0 -- -- 41
2017-11-20 12:00:00 19.1 6 Sudeste 16 Sudeste 0 -- -- 48
2017-11-20 11:00:00 16.2 8 Este 17 Este 0 -- -- 56
2017-11-20 10:00:00 13.2 8 Este 16 Nordeste 0 -- -- 65
2017-11-20 09:00:00 8.1 8 Este 13 Este 0 -- -- 82
2017-11-20 08:00:00 7.1 9 Este 14 Nordeste 0 -- -- 84
2017-11-20 07:00:00 6.8 7 Nordeste 14 Este 0 -- -- 85
2017-11-20 06:00:00 7.4 7 Nordeste 12 Nordeste 0 -- -- 81
2017-11-20 05:00:00 8.1 7 Este 13 Este 0 -- -- 77
2017-11-20 04:00:00 8.1 8 Este 14 Este 0 -- -- 77
2017-11-20 03:00:00 7.7 7 Este 13 Nordeste 0 -- -- 80
2017-11-20 02:00:00 7.6 5 Este 10 Nordeste 0 -- -- 82
2017-11-20 01:00:00 8.1 6 Este 14 Nordeste 0 -- -- 81
2017-11-20 00:00:00 8.3 9 Nordeste 13 Nordeste 0 -- -- 82
2017-11-19 23:00:00 8.1 6 Nordeste 9 Este 0 -- -- 83
2017-11-19 22:00:00 8 6 Nordeste 9 Nordeste 0 -- -- 86
2017-11-19 21:00:00 8 6 Norte 8 Norte 0 -- -- 88
2017-11-19 20:00:00 9.7 5 Norte 7 Norte 0 -- -- 83
2017-11-19 19:00:00 13 5 Norte 6 Norte 0 -- -- 76
2017-11-19 18:00:00 18.1 3 Noroeste 12 Oeste 0 -- -- 62
2017-11-19 17:00:00 19 8 Oeste 14 Oeste 0 -- -- 61
2017-11-19 16:00:00 19.3 9 Oeste 13 Oeste 0 -- -- 57
2017-11-19 15:00:00 19.6 8 Sudoeste 13 Sur 0 -- -- 53
2017-11-19 14:00:00 19.1 8 Sur 14 Sur 0 -- -- 54
2017-11-19 13:00:00 19.1 7 Sur 18 Sudeste 0 -- -- 55
2017-11-19 12:00:00 17.7 9 Sudeste 19 Sudeste 0 -- -- 54
2017-11-19 11:00:00 14.9 11 Este 18 Este 0 -- -- 60
2017-11-19 10:00:00 11.9 5 Nordeste 12 Nordeste 0 -- -- 78
2017-11-19 09:00:00 6.7 6 Nordeste 13 Nordeste 0 -- -- 95
2017-11-19 08:00:00 5.7 8 Nordeste 12 Nordeste 0 -- -- 95
2017-11-19 07:00:00 6.2 3 Nordeste 12 Este 0 -- -- 94
2017-11-19 06:00:00 6.7 8 Este 14 Nordeste 0 -- -- 97
2017-11-19 05:00:00 7 8 Este 13 Este 0 -- -- 97
2017-11-19 04:00:00 7.7 8 Este 14 Este 0 -- -- 99
2017-11-19 03:00:00 7.9 7 Este 10 Este 0 -- -- 100
2017-11-19 02:00:00 7.6 5 Este 9 Nordeste 0 -- -- 100
2017-11-19 01:00:00 8.4 5 Nordeste 10 Nordeste 0 -- -- 100
2017-11-19 00:00:00 8.5 5 Nordeste 8 Nordeste 0 -- -- 100
2017-11-18 23:00:00 8.2 6 Nordeste 10 Nordeste 0 -- -- 100
2017-11-18 22:00:00 8 3 Este 6 Nordeste 0 -- -- 96
2017-11-18 21:00:00 9 4 Nordeste 5 Nordeste 0 -- -- 97
2017-11-18 20:00:00 10.7 3 Nordeste 5 Norte 0 -- -- 93
2017-11-18 19:00:00 13.5 4 Noroeste 6 Oeste 0 -- -- 89
2017-11-18 18:00:00 17.4 5 Oeste 12 Oeste 0 -- -- 82
2017-11-18 17:00:00 18.2 9 Oeste 12 Oeste 0 -- -- 75
2017-11-18 16:00:00 18.7 7 Oeste 13 Oeste 0 -- -- 62
2017-11-18 15:00:00 18.9 7 Sudoeste 12 Sudoeste 0 -- -- 58
2017-11-18 14:00:00 18.1 7 Sudoeste 13 Sur 0 -- -- 58
2017-11-18 13:00:00 17.9 9 Sudoeste 13 Sur 0 -- -- 59
2017-11-18 12:00:00 17.7 4 Sudeste 12 Sudeste 0 -- -- 54
2017-11-18 11:00:00 15.8 5 Sudeste 10 Sudeste 0 -- -- 59
2017-11-18 10:00:00 10.9 7 Este 13 Este 0 -- -- 78
2017-11-18 09:00:00 8.2 8 Este 13 Este 0 -- -- 89
2017-11-18 08:00:00 6.8 8 Este 13 Este 0 -- -- 93
2017-11-18 07:00:00 6.8 7 Este 13 Este 0 -- -- 95
2017-11-18 06:00:00 7 7 Este 11 Este 0 -- -- 98
2017-11-18 05:00:00 7 7 Este 12 Este 0 -- -- 99
2017-11-18 04:00:00 6.3 6 Este 9 Este 0 -- -- 100
2017-11-18 03:00:00 5.8 4 Este 7 Este 0 -- -- 99
2017-11-18 02:00:00 7 4 Nordeste 10 Este 0 -- -- 98
2017-11-18 01:00:00 7 5 Nordeste 8 Nordeste 0 -- -- 99
2017-11-18 00:00:00 6.7 5 Este 8 Este 0 -- -- 98
2017-11-17 23:00:00 7.3 5 Nordeste 6 Nordeste 0 -- -- 97
2017-11-17 22:00:00 7.9 -- -- -- -- 0 -- -- 95
2017-11-17 21:00:00 9.6 4 Nordeste 6 Norte 0 -- -- 94
2017-11-17 20:00:00 10.5 5 Norte 8 Norte 0 -- -- 90
2017-11-17 19:00:00 13.2 4 Norte 8 Oeste 0 -- -- 83
2017-11-17 18:00:00 17.7 5 Noroeste 14 Oeste 0 -- -- 70
2017-11-17 17:00:00 18.8 8 Oeste 13 Oeste 0 -- -- 66
2017-11-17 16:00:00 19.2 8 Oeste 11 Oeste 0 -- -- 62
2017-11-17 15:00:00 19.2 7 Oeste 13 Sudoeste 0 -- -- 63
2017-11-17 14:00:00 19.4 7 Sudoeste 15 Sur 0 -- -- 61
2017-11-17 13:00:00 18.8 10 Sur 15 Sur 0 -- -- 59
2017-11-17 12:00:00 18.2 4 Sudeste 12 Este 0 -- -- 58
2017-11-17 11:00:00 15.3 7 Este 13 Este 0 -- -- 62
2017-11-17 10:00:00 11.9 6 Este 14 Sudeste 0 -- -- 74
2017-11-17 09:00:00 8 7 Este 13 Este 0 -- -- 88
2017-11-17 08:00:00 7.4 7 Este 15 Este 0 -- -- 89
2017-11-17 07:00:00 7.3 9 Este 13 Este 0 -- -- 91
2017-11-17 06:00:00 6.9 7 Nordeste 12 Nordeste 0 -- -- 94
2017-11-17 05:00:00 7.2 7 Este 13 Este 0 -- -- 93
2017-11-17 04:00:00 7.5 7 Este 10 Este 0 -- -- 93
2017-11-17 03:00:00 8 6 Nordeste 11 Nordeste 0 -- -- 92
2017-11-17 02:00:00 7.6 5 Nordeste 9 Nordeste 0 -- -- 95
2017-11-17 01:00:00 7 6 Nordeste 9 Nordeste 0 -- -- 97
2017-11-17 00:00:00 8.4 5 Este 9 Nordeste 0 -- -- 94
2017-11-16 23:00:00 8.8 5 Nordeste 8 Nordeste 0 -- -- 94
2017-11-16 22:00:00 9.5 5 Nordeste 9 Norte 0 -- -- 96
2017-11-16 21:00:00 9.6 4 Norte 7 Norte 0 -- -- 93
2017-11-16 20:00:00 10.7 4 Norte 8 Norte 0 -- -- 91
2017-11-16 19:00:00 13.1 2 Noroeste 5 Oeste 0 -- -- 82
2017-11-16 18:00:00 17.7 5 Oeste 12 Sudoeste 0 -- -- 68
2017-11-16 17:00:00 18.7 7 Oeste 13 Oeste 0 -- -- 62
2017-11-16 16:00:00 19 10 Oeste 15 Oeste 0 -- -- 57
2017-11-16 15:00:00 19.3 9 Oeste 13 Oeste 0 -- -- 56
2017-11-16 14:00:00 19.6 8 Sur 15 Sur 0 -- -- 47
2017-11-16 13:00:00 19.2 5 Sudeste 13 Este 0 -- -- 50
2017-11-16 12:00:00 17.2 7 Este 15 Este 0 -- -- 55
2017-11-16 11:00:00 14.8 9 Este 17 Sudeste 0 -- -- 64
2017-11-16 10:00:00 11.8 7 Este 13 Este 0 -- -- 81
2017-11-16 09:00:00 7.3 7 Este 12 Nordeste 0 -- -- 100
2017-11-16 08:00:00 5.9 5 Nordeste 10 Nordeste 0 -- -- 100
2017-11-16 07:00:00 5.7 5 Nordeste 10 Nordeste 0 -- -- 99
2017-11-16 06:00:00 5 4 Nordeste 6 Este 0 -- -- 97
2017-11-16 05:00:00 6.5 2 Nordeste 6 Nordeste 0 -- -- 96
2017-11-16 04:00:00 7.8 5 Nordeste 10 Nordeste 0 -- -- 97
2017-11-16 03:00:00 8.5 5 Nordeste 9 Nordeste 0 -- -- 94
2017-11-16 02:00:00 9.1 6 Nordeste 12 Nordeste 0 -- -- 93
2017-11-16 01:00:00 9.3 6 Nordeste 10 Nordeste 0 -- -- 91
2017-11-16 00:00:00 10.1 6 Nordeste 8 Nordeste 0 -- -- 87
2017-11-15 23:00:00 10 5 Nordeste 8 Nordeste 0 -- -- 88
2017-11-15 22:00:00 10.2 6 Nordeste 9 Nordeste 0 -- -- 86
2017-11-15 21:00:00 10.7 5 Norte 9 Norte 0 -- -- 85
2017-11-15 20:00:00 11.7 5 Norte 8 Norte 0 -- -- 82
2017-11-15 19:00:00 14 4 Norte 6 Noroeste 0 -- -- 78
2017-11-15 18:00:00 18.4 4 Oeste 9 Oeste 0 -- -- 65
2017-11-15 17:00:00 19.3 6 Oeste 13 Oeste 0 -- -- 59
2017-11-15 16:00:00 20.2 7 Sudoeste 13 Sudoeste 0 -- -- 56
2017-11-15 15:00:00 20.6 6 Sudoeste 15 Sur 0 -- -- 52
2017-11-15 14:00:00 20.5 4 Sudoeste 15 Sudeste 0 -- -- 50
2017-11-15 13:00:00 19.5 9 Sudeste 18 Sudeste 0 -- -- 51
2017-11-15 12:00:00 17.6 9 Este 19 Este 0 -- -- 54
2017-11-15 11:00:00 14.8 10 Este 25 Este 0 -- -- 57
2017-11-15 10:00:00 11.9 12 Este 26 Este 0 -- -- 61
2017-11-15 09:00:00 8.2 7 Este 13 Este 0 -- -- 67
2017-11-15 08:00:00 6.8 7 Este 12 Este 0 -- -- 67
2017-11-15 07:00:00 6.8 7 Este 12 Este 0 -- -- 67
2017-11-15 06:00:00 6.9 7 Este 13 Nordeste 0 -- -- 67
2017-11-15 05:00:00 7.2 7 Este 14 Este 0 -- -- 68
2017-11-15 04:00:00 7.6 9 Este 14 Este 0 -- -- 67
2017-11-15 03:00:00 7.5 8 Este 14 Este 0 -- -- 68
2017-11-15 02:00:00 7.6 9 Este 16 Este 0 -- -- 70
2017-11-15 01:00:00 6.9 6 Este 10 Este 0 -- -- 74
2017-11-15 00:00:00 6.7 7 Este 11 Este 0 -- -- 75
2017-11-14 23:00:00 6.8 6 Este 8 Nordeste 0 -- -- 76
2017-11-14 22:00:00 7.3 4 Sudeste 10 Sudeste 0 -- -- 78
2017-11-14 21:00:00 8.6 4 Sudeste 9 Sur 0 -- -- 75
2017-11-14 20:00:00 11.6 5 Sur 10 Sudoeste 0 -- -- 70
2017-11-14 19:00:00 14.2 3 Sudoeste 10 Oeste 0 -- -- 57
2017-11-14 18:00:00 18.3 6 Oeste 17 Oeste 0 -- -- 47
2017-11-14 17:00:00 19.7 8 Oeste 16 Noroeste 0 -- -- 38
2017-11-14 16:00:00 20.8 10 Oeste 15 Este 0 -- -- 35
2017-11-14 15:00:00 20.9 8 Nordeste 21 Nordeste 0 -- -- 26
2017-11-14 14:00:00 19.8 8 Este 20 Sudeste 0 -- -- 28
2017-11-14 13:00:00 18.6 11 Este 24 Sudeste 0 -- -- 28
2017-11-14 12:00:00 17 13 Este 27 Este 0 -- -- 34
2017-11-14 11:00:00 15.2 9 Este 17 Este 0 -- -- 44
2017-11-14 10:00:00 12.5 4 Este 9 Este 0 -- -- 57
2017-11-14 09:00:00 6.8 4 Norte 8 Noroeste 0 -- -- 79
2017-11-14 08:00:00 5.9 5 Nordeste 7 Este 0 -- -- 80
2017-11-14 07:00:00 8.2 3 Nordeste 14 Este 0 -- -- 71
2017-11-14 06:00:00 9.5 7 Este 14 Este 0 -- -- 67
2017-11-14 05:00:00 10.4 7 Este 16 Este 0 -- -- 63
2017-11-14 04:00:00 9.6 5 Este 12 Nordeste 0 -- -- 68
2017-11-14 03:00:00 10.7 6 Este 15 Este 0 -- -- 67
2017-11-14 02:00:00 12 8 Este 17 Nordeste 0 -- -- 67
2017-11-14 01:00:00 12.1 8 Este 14 Este 0 -- -- 68
2017-11-14 00:00:00 11.6 6 Nordeste 9 Nordeste 0 -- -- 70
2017-11-13 23:00:00 14.3 7 Este 13 Nordeste 0 -- -- 61
2017-11-13 22:00:00 14.7 8 Nordeste 14 Nordeste 0 -- -- 60
2017-11-13 21:00:00 13.6 7 Nordeste 13 Norte 0 -- -- 67
2017-11-13 20:00:00 13.7 6 Norte 10 Norte 0 -- -- 67
2017-11-13 19:00:00 16.2 5 Norte 9 Norte 0 -- -- 60
2017-11-13 18:00:00 20.5 4 Norte 14 Norte 0 -- -- 48
2017-11-13 17:00:00 21.7 9 Norte 21 Norte 0 -- -- 45
2017-11-13 16:00:00 21.8 10 Nordeste 27 Norte 0 -- -- 47
2017-11-13 15:00:00 20.7 13 Nordeste 28 Nordeste 0 -- -- 51
2017-11-13 14:00:00 19.8 13 Norte 30 Norte 0 -- -- 55
2017-11-13 13:00:00 18.8 14 Norte 32 Norte 0 -- -- 59
2017-11-13 12:00:00 16.8 13 Norte 29 Norte 0 -- -- 66
2017-11-13 11:00:00 15 15 Norte 28 Norte 0 -- -- 74
2017-11-13 10:00:00 12.6 16 Norte 30 Norte 0 -- -- 82
2017-11-13 09:00:00 10.2 13 Norte 27 Norte 0 -- -- 92
2017-11-13 08:00:00 9.3 9 Norte 26 Norte 0 -- -- 94
2017-11-13 07:00:00 9.6 11 Norte 26 Norte 0 -- -- 93
2017-11-13 06:00:00 10 14 Norte 28 Norte 0 -- -- 92
2017-11-13 05:00:00 10.3 13 Norte 26 Noroeste 0 -- -- 91
2017-11-13 04:00:00 10.8 10 Norte 23 Norte 0 -- -- 89
2017-11-13 03:00:00 11.7 11 Norte 24 Norte 0 -- -- 86
2017-11-13 02:00:00 12 12 Norte 26 Norte 0 -- -- 85
2017-11-13 01:00:00 12.5 10 Norte 17 Norte 0 -- -- 80
2017-11-13 00:00:00 12.2 7 Nordeste 16 Norte 0 -- -- 79
2017-11-12 23:00:00 13.2 9 Norte 16 Norte 0 -- -- 75
2017-11-12 22:00:00 13.4 8 Norte 15 Norte 0 -- -- 75
2017-11-12 21:00:00 14.1 9 Norte 15 Norte 0 -- -- 75
2017-11-12 20:00:00 15 7 Noroeste 13 Norte 0 -- -- 78
2017-11-12 19:00:00 16.9 7 Noroeste 24 Noroeste 0 -- -- 83
2017-11-12 18:00:00 18.9 14 Oeste 29 Oeste 0 -- -- 82
2017-11-12 17:00:00 20.3 16 Oeste 27 Oeste 0 -- -- 68
2017-11-12 16:00:00 23.9 13 Noroeste 25 Noroeste 0 -- -- 53
2017-11-12 15:00:00 21.7 6 Sur 17 Sur 0 -- -- 60
2017-11-12 14:00:00 20.6 10 Sudoeste 17 Sudoeste 0 -- -- 59
2017-11-12 13:00:00 20.4 9 Sudoeste 17 Sudoeste 0 -- -- 55
2017-11-12 12:00:00 17.8 5 Sudoeste 8 Sudoeste 0 -- -- 64
2017-11-12 11:00:00 16.9 3 Nordeste 8 Norte 0 -- -- 63
2017-11-12 10:00:00 13.4 4 Nordeste 8 Nordeste 0 -- -- 79
2017-11-12 09:00:00 6 4 Nordeste 7 Nordeste 0 -- -- 100
2017-11-12 08:00:00 4.1 4 Nordeste 6 Este 0 -- -- 96
2017-11-12 07:00:00 5.3 3 Nordeste 9 Nordeste 0 -- -- 94
2017-11-12 06:00:00 6.7 5 Nordeste 9 Nordeste 0 -- -- 93
2017-11-12 05:00:00 7.2 6 Nordeste 10 Nordeste 0 -- -- 91
2017-11-12 04:00:00 8 6 Nordeste 10 Nordeste 0 -- -- 90
2017-11-12 03:00:00 8.3 6 Nordeste 12 Norte 0 -- -- 86
2017-11-12 02:00:00 8.3 6 Norte 12 Norte 0 -- -- 88
2017-11-12 01:00:00 8 6 Norte 10 Norte 0 -- -- 90
2017-11-12 00:00:00 8.4 6 Norte 10 Nordeste 0 -- -- 91
2017-11-11 23:00:00 8.2 5 Norte 7 Nordeste 0 -- -- 95
2017-11-11 22:00:00 10.9 3 Este 9 Noroeste 0 -- -- 90
2017-11-11 21:00:00 11.8 5 Noroeste 8 Noroeste 0 -- -- 90
2017-11-11 20:00:00 14.7 5 Noroeste 13 Noroeste 0 -- -- 87
2017-11-11 19:00:00 16.9 6 Noroeste 15 Oeste 0 -- -- 81
2017-11-11 18:00:00 19.3 8 Oeste 13 Oeste 0 -- -- 71
2017-11-11 17:00:00 20.8 4 Sudoeste 13 Oeste 0 -- -- 60
2017-11-11 16:00:00 21.3 7 Sudoeste 14 Sudoeste 0 -- -- 51
2017-11-11 15:00:00 20.3 12 Oeste 16 Sudoeste 0 -- -- 55
2017-11-11 14:00:00 21.3 11 Oeste 16 Este 0 -- -- 50
2017-11-11 13:00:00 21.8 4 Sudeste 15 Este 0 -- -- 45
2017-11-11 12:00:00 20.3 5 Este 13 Sudeste 0 -- -- 47
2017-11-11 11:00:00 17.3 3 Este 14 Nordeste 0 -- -- 55
2017-11-11 10:00:00 14.4 6 Este 17 Nordeste 0 -- -- 64
2017-11-11 09:00:00 9 7 Nordeste 14 Nordeste 0 -- -- 82
2017-11-11 08:00:00 5.9 8 Nordeste 12 Nordeste 0 -- -- 90
2017-11-11 07:00:00 5.4 5 Nordeste 9 Nordeste 0 -- -- 90
2017-11-11 06:00:00 5.7 2 Nordeste 7 Nordeste 0 -- -- 88
2017-11-11 05:00:00 6.9 5 Nordeste 10 Nordeste 0 -- -- 84
2017-11-11 04:00:00 7.4 6 Nordeste 11 Nordeste 0 -- -- 83
2017-11-11 03:00:00 8 7 Nordeste 12 Nordeste 0 -- -- 82
2017-11-11 02:00:00 7.5 6 Nordeste 10 Nordeste 0 -- -- 87
2017-11-11 01:00:00 7.6 6 Nordeste 9 Nordeste 0 -- -- 88
2017-11-11 00:00:00 7.6 6 Nordeste 9 Este 0 -- -- 90
2017-11-10 23:00:00 7.3 6 Nordeste 9 Nordeste 0 -- -- 92
2017-11-10 22:00:00 8.3 3 Sur 8 Sur 0 -- -- 86
2017-11-10 21:00:00 9.4 4 Sudoeste 8 Sudoeste 0 -- -- 83
2017-11-10 20:00:00 10.9 2 Noroeste 7 Oeste 0 -- -- 77
2017-11-10 19:00:00 14.2 4 Norte 10 Noroeste 0 -- -- 66
2017-11-10 18:00:00 18.6 5 Noroeste 15 Noroeste 0 -- -- 55
2017-11-10 17:00:00 20.4 6 Oeste 15 Oeste 0 -- -- 52
2017-11-10 16:00:00 21.5 5 Sudoeste 20 Sur 0 -- -- 37
2017-11-10 15:00:00 20.3 10 Sur 25 Nordeste 0 -- -- 42
2017-11-10 14:00:00 20.5 10 Nordeste 26 Nordeste 0 -- -- 33
2017-11-10 13:00:00 19 8 Este 24 Este 0 -- -- 36
2017-11-10 12:00:00 17.5 9 Este 21 Este 0 -- -- 36
2017-11-10 11:00:00 15.8 10 Este 19 Nordeste 0 -- -- 40
2017-11-10 10:00:00 12.7 5 Nordeste 12 Nordeste 0 -- -- 56
2017-11-10 09:00:00 7.1 4 Nordeste 9 Norte 0 -- -- 75
2017-11-10 08:00:00 6 6 Nordeste 13 Nordeste 0 -- -- 73
2017-11-10 07:00:00 6.6 5 Nordeste 10 Nordeste 0 -- -- 69
2017-11-10 06:00:00 7 7 Nordeste 13 Nordeste 0 -- -- 66
2017-11-10 05:00:00 8.2 5 Nordeste 13 Nordeste 0 -- -- 62
2017-11-10 04:00:00 9.7 6 Nordeste 18 Nordeste 0 -- -- 55
2017-11-10 03:00:00 7.2 8 Nordeste 13 Nordeste 0 -- -- 63
2017-11-10 02:00:00 7.7 6 Nordeste 10 Nordeste 0 -- -- 61
2017-11-10 01:00:00 10.7 5 Nordeste 16 Nordeste 0 -- -- 50
2017-11-10 00:00:00 10.9 8 Nordeste 17 Norte 0 -- -- 49
2017-11-09 23:00:00 11.8 9 Nordeste 16 Nordeste 0 -- -- 47
2017-11-09 22:00:00 12.1 8 Nordeste 17 Nordeste 0 -- -- 46
2017-11-09 21:00:00 12.9 7 Nordeste 14 Nordeste 0 -- -- 44
2017-11-09 20:00:00 13.1 7 Nordeste 12 Nordeste 0 -- -- 42
2017-11-09 19:00:00 15.9 6 Este 20 Este 0 -- -- 35
2017-11-09 18:00:00 18.3 11 Nordeste 26 Nordeste 0 -- -- 30
2017-11-09 17:00:00 19.6 12 Nordeste 27 Nordeste 0 -- -- 28
2017-11-09 16:00:00 20 13 Este 30 Nordeste 0 -- -- 27
2017-11-09 15:00:00 20.1 12 Este 31 Nordeste 0 -- -- 26
2017-11-09 14:00:00 19.2 16 Nordeste 34 Sudeste 0 -- -- 27
2017-11-09 13:00:00 18.8 15 Este 31 Sudeste 0 -- -- 29
2017-11-09 12:00:00 17.7 13 Este 30 Este 0 -- -- 33
2017-11-09 11:00:00 15.9 16 Este 29 Este 0 -- -- 40
2017-11-09 10:00:00 14.6 12 Nordeste 26 Este 0 -- -- 44
2017-11-09 09:00:00 12.5 8 Nordeste 17 Nordeste 0 -- -- 52
2017-11-09 08:00:00 12.5 10 Nordeste 22 Nordeste 0 -- -- 50
2017-11-09 07:00:00 11.4 9 Nordeste 17 Este 0 -- -- 54
2017-11-09 06:00:00 8.6 4 Nordeste 9 Norte 0 -- -- 70
2017-11-09 05:00:00 10.9 5 Nordeste 13 Nordeste 0 -- -- 59
2017-11-09 04:00:00 11.9 8 Nordeste 13 Nordeste 0 -- -- 55
2017-11-09 03:00:00 11 7 Nordeste 13 Norte 0 -- -- 57
2017-11-09 02:00:00 11.5 7 Nordeste 13 Nordeste 0 -- -- 55
2017-11-09 01:00:00 12.9 6 Nordeste 15 Nordeste 0 -- -- 51
2017-11-09 00:00:00 13 9 Nordeste 18 Nordeste 0 -- -- 61
2017-11-08 23:00:00 11.9 7 Nordeste 11 Nordeste 0 -- -- 72
2017-11-08 22:00:00 12.7 5 Nordeste 12 Nordeste 0 -- -- 69
2017-11-08 21:00:00 14.3 8 Nordeste 15 Norte 0 -- -- 64
2017-11-08 20:00:00 15.7 8 Norte 16 Norte 0 -- -- 58
2017-11-08 19:00:00 17 8 Norte 19 Norte 0 -- -- 53
2017-11-08 18:00:00 19.9 12 Norte 25 Norte 0 -- -- 44
2017-11-08 17:00:00 21.6 11 Norte 26 Norte 0 -- -- 44
2017-11-08 16:00:00 22.6 13 Nordeste 23 Nordeste 0 -- -- 40
2017-11-08 15:00:00 21.6 6 Sudoeste 20 Sur 0 -- -- 59
2017-11-08 14:00:00 21.1 8 Sudoeste 20 Sudoeste 0 -- -- 58
2017-11-08 13:00:00 20.2 7 Sudoeste 11 Oeste 0 -- -- 57
2017-11-08 12:00:00 19.6 5 Noroeste 15 Noroeste 0 -- -- 56
2017-11-08 11:00:00 16.5 6 Nordeste 22 Nordeste 0 -- -- 66
2017-11-08 10:00:00 13.3 10 Nordeste 19 Norte 0 -- -- 77
2017-11-08 09:00:00 9 4 Nordeste 13 Norte 0 -- -- 96
2017-11-08 08:00:00 7.8 2 Nordeste 8 Norte 0 -- -- 95
2017-11-08 07:00:00 8.7 5 Norte 18 Norte 0 -- -- 91
2017-11-08 06:00:00 9.5 8 Norte 19 Norte 0 -- -- 88
2017-11-08 05:00:00 9.2 8 Norte 15 Norte 0 -- -- 88
2017-11-08 04:00:00 9.8 6 Nordeste 14 Norte 0 -- -- 84
2017-11-08 03:00:00 10.5 10 Norte 16 Norte 0 -- -- 80
2017-11-08 02:00:00 11.1 7 Norte 14 Norte 0 -- -- 76
2017-11-08 01:00:00 11 6 Norte 12 Nordeste 0 -- -- 73
2017-11-08 00:00:00 10.3 5 Nordeste 10 Nordeste 0 -- -- 71
2017-11-07 23:00:00 11.4 5 Nordeste 10 Nordeste 0 -- -- 67
2017-11-07 22:00:00 14.4 5 Nordeste 13 Nordeste 0 -- -- 56
2017-11-07 21:00:00 14.5 7 Nordeste 12 Nordeste 0 -- -- 56
2017-11-07 20:00:00 16 7 Nordeste 13 Norte 0 -- -- 52
2017-11-07 19:00:00 17.6 7 Norte 14 Norte 0 -- -- 49
2017-11-07 18:00:00 20.9 6 Norte 14 Noroeste 0 -- -- 41
2017-11-07 17:00:00 21.1 9 Oeste 18 Noroeste 0 -- -- 52
2017-11-07 16:00:00 23.2 10 Norte 20 Norte 0 -- -- 35
2017-11-07 15:00:00 22.9 7 Nordeste 19 Este 0 -- -- 34
2017-11-07 14:00:00 21.4 8 Este 18 Este 0 -- -- 39
2017-11-07 13:00:00 19.8 6 Este 26 Este 0 -- -- 41
2017-11-07 12:00:00 18.6 14 Este 24 Sudeste 0 -- -- 43
2017-11-07 11:00:00 16.7 12 Este 24 Este 0 -- -- 50
2017-11-07 10:00:00 14.4 8 Este 18 Este 0 -- -- 59
2017-11-07 09:00:00 10.9 8 Este 15 Nordeste 0 -- -- 72
2017-11-07 08:00:00 8.1 5 Nordeste 9 Nordeste 0 -- -- 81
2017-11-07 07:00:00 8.4 6 Nordeste 10 Nordeste 0 -- -- 80
2017-11-07 06:00:00 9.2 6 Nordeste 13 Nordeste 0 -- -- 77
2017-11-07 05:00:00 8.8 7 Nordeste 12 Nordeste 0 -- -- 79
2017-11-07 04:00:00 9.2 6 Nordeste 13 Nordeste 0 -- -- 78
2017-11-07 03:00:00 8.9 7 Nordeste 12 Este 0 -- -- 79
2017-11-07 02:00:00 8.7 6 Nordeste 10 Nordeste 0 -- -- 80
2017-11-07 01:00:00 9.8 7 Nordeste 10 Nordeste 0 -- -- 74
2017-11-07 00:00:00 10.4 6 Nordeste 11 Este 0 -- -- 73
2017-11-06 23:00:00 12.3 6 Este 12 Nordeste 0 -- -- 66
2017-11-06 22:00:00 11.8 6 Este 10 Nordeste 0 -- -- 67
2017-11-06 21:00:00 11.1 5 Nordeste 8 Nordeste 0 -- -- 67
2017-11-06 20:00:00 13 5 Nordeste 9 Nordeste 0 -- -- 60
2017-11-06 19:00:00 16.5 4 Este 14 Este 0 -- -- 48
2017-11-06 18:00:00 20.1 9 Este 23 Sudeste 0 -- -- 37
2017-11-06 17:00:00 21.3 14 Sudeste 30 Este 0 -- -- 31
2017-11-06 16:00:00 21.8 16 Sudeste 33 Este 0 -- -- 33
2017-11-06 15:00:00 21.6 17 Este 36 Este 0 -- -- 34
2017-11-06 14:00:00 21.1 18 Este 35 Este 0 -- -- 38
2017-11-06 13:00:00 20.8 16 Este 35 Este 0 -- -- 39
2017-11-06 12:00:00 19.6 18 Este 32 Este 0 -- -- 43
2017-11-06 11:00:00 18.1 17 Este 31 Este 0 -- -- 48
2017-11-06 10:00:00 16 13 Este 26 Este 0 -- -- 55
2017-11-06 09:00:00 13.3 9 Este 17 Este 0 -- -- 66
2017-11-06 08:00:00 12 9 Este 17 Este 0 -- -- 71
2017-11-06 07:00:00 12.1 9 Nordeste 18 Nordeste 0 -- -- 72
2017-11-06 06:00:00 11.7 8 Nordeste 17 Nordeste 0 -- -- 75
2017-11-06 05:00:00 9.8 8 Nordeste 12 Nordeste 0 -- -- 84
2017-11-06 04:00:00 9.7 6 Nordeste 10 Nordeste 0 -- -- 86
2017-11-06 03:00:00 10.2 7 Nordeste 12 Norte 0 -- -- 84
2017-11-06 02:00:00 10.9 6 Nordeste 11 Nordeste 0 -- -- 81
2017-11-06 01:00:00 11.6 6 Nordeste 11 Nordeste 0 -- -- 80
2017-11-06 00:00:00 12.4 5 Nordeste 9 Nordeste 0 -- -- 78
2017-11-05 23:00:00 14.2 6 Nordeste 12 Nordeste 0 -- -- 71
2017-11-05 22:00:00 13.9 6 Nordeste 10 Nordeste 0 -- -- 74
2017-11-05 21:00:00 14.7 6 Nordeste 14 Nordeste 0 -- -- 74
2017-11-05 20:00:00 16 8 Nordeste 15 Nordeste 0 -- -- 71
2017-11-05 19:00:00 17.7 7 Norte 18 Norte 0 -- -- 65
2017-11-05 18:00:00 20.2 10 Norte 30 Norte 0 -- -- 57
2017-11-05 17:00:00 21.4 14 Norte 30 Norte 0 -- -- 51
2017-11-05 16:00:00 21.3 16 Norte 30 Norte 0 -- -- 55
2017-11-05 15:00:00 21.2 11 Norte 25 Norte 0 -- -- 57
2017-11-05 14:00:00 20.3 9 Norte 28 Noroeste 0 -- -- 64
2017-11-05 13:00:00 19.9 9 Norte 23 Noroeste 0 -- -- 65
2017-11-05 12:00:00 18.9 9 Norte 19 Nordeste 0 -- -- 68
2017-11-05 11:00:00 17.2 10 Nordeste 23 Nordeste 0 -- -- 78
2017-11-05 10:00:00 15.2 13 Norte 28 Norte 0 -- -- 84
2017-11-05 09:00:00 13.1 12 Norte 27 Norte 0 -- -- 96
2017-11-05 08:00:00 11.8 6 Nordeste 14 Norte 0 -- -- 98
2017-11-05 07:00:00 11.8 8 Nordeste 15 Nordeste 0 -- -- 98
2017-11-05 06:00:00 11.8 2 Noroeste 8 Norte 0 -- -- 97
2017-11-05 05:00:00 12.5 2 Nordeste 11 Noroeste 0 -- -- 96
2017-11-05 04:00:00 13 5 Norte 13 Norte 0 -- -- 95
2017-11-05 03:00:00 13.5 6 Norte 22 Norte 0 -- -- 95
2017-11-05 02:00:00 13.6 9 Norte 17 Norte 0 -- -- 95
2017-11-05 01:00:00 13.6 6 Norte 12 Noroeste 0 -- -- 96
2017-11-05 00:00:00 14.3 6 Norte 13 Noroeste 0 -- -- 93
2017-11-04 23:00:00 15 6 Norte 15 Norte 0 -- -- 92
2017-11-04 22:00:00 15.5 8 Norte 14 Noroeste 0 -- -- 90
2017-11-04 21:00:00 16.3 5 Norte 13 Noroeste 0 -- -- 86
2017-11-04 20:00:00 17.6 8 Norte 24 Norte 0 -- -- 78
2017-11-04 19:00:00 18.8 12 Norte 27 Norte 0 -- -- 70
2017-11-04 18:00:00 20.5 11 Norte 28 Norte 0 -- -- 64
2017-11-04 17:00:00 20.7 8 Noroeste 18 Noroeste 0 -- -- 68
2017-11-04 16:00:00 20.9 5 Noroeste 30 Oeste 0 -- -- 67
2017-11-04 15:00:00 20.4 18 Oeste 35 Noroeste 0 -- -- 74
2017-11-04 14:00:00 20.9 23 Oeste 38 Oeste 0 -- -- 70
2017-11-04 13:00:00 20 15 Oeste 25 Oeste 0 -- -- 76
2017-11-04 12:00:00 20.7 13 Noroeste 28 Noroeste 0 -- -- 69
2017-11-04 11:00:00 18.9 11 Noroeste 22 Noroeste 0 -- -- 80
2017-11-04 10:00:00 17.4 8 Noroeste 15 Noroeste 0 -- -- 89
2017-11-04 09:00:00 15 5 Noroeste 8 Noroeste 0 -- -- 100
2017-11-04 08:00:00 14 5 Norte 15 Noroeste 0 -- -- 98
2017-11-04 07:00:00 15.4 8 Noroeste 14 Noroeste 0 -- -- 95
2017-11-04 06:00:00 15.9 8 Noroeste 19 Noroeste 0 -- -- 95
2017-11-04 05:00:00 16 8 Noroeste 18 Noroeste 0.6 -- -- 97
2017-11-04 04:00:00 16 10 Noroeste 19 Noroeste 1.8 -- -- 97
2017-11-04 03:00:00 15.9 10 Noroeste 23 Noroeste 2 -- -- 97
2017-11-04 02:00:00 16.3 10 Norte 24 Norte 0.8 -- -- 95
2017-11-04 01:00:00 16.8 3 Noroeste 26 Oeste 0 -- -- 92
2017-11-04 00:00:00 18 9 Oeste 26 Oeste 0 -- -- 89
2017-11-03 23:00:00 17.4 12 Noroeste 26 Oeste 0.4 -- -- 90
2017-11-03 22:00:00 16.7 11 Oeste 45 Noroeste 0.8 -- -- 90
2017-11-03 21:00:00 16.5 6 Norte 21 Oeste 0 -- -- 96
2017-11-03 20:00:00 15.3 0 Calma 5 Sur 0 -- -- 97
2017-11-03 19:00:00 16.5 2 Sur 8 Sur 0 -- -- 96
2017-11-03 18:00:00 17.5 5 Oeste 35 Oeste 3.4 -- -- 91
2017-11-03 17:00:00 20.1 10 Sudoeste 19 Sudoeste 0 -- -- 77
2017-11-03 16:00:00 21.8 9 Sudoeste 17 Sudoeste 0 -- -- 68
2017-11-03 15:00:00 22.1 9 Sudoeste 16 Sudoeste 0 -- -- 64
2017-11-03 14:00:00 21.8 8 Sudoeste 17 Sur 0 -- -- 69
2017-11-03 13:00:00 21.2 9 Sur 15 Sur 0 -- -- 70
2017-11-03 12:00:00 20.4 6 Sudeste 12 Este 0 -- -- 79
2017-11-03 11:00:00 18.4 6 Este 12 Nordeste 0 -- -- 93
2017-11-03 10:00:00 17.1 4 Este 10 Este 0 -- -- 100
2017-11-03 09:00:00 14.2 4 Nordeste 8 Este 0 -- -- 100
2017-11-03 08:00:00 13.5 3 Nordeste 6 Sudeste 0 -- -- 99
2017-11-03 07:00:00 15 0 Calma 4 Norte 0 -- -- 98
2017-11-03 06:00:00 16.3 2 Nordeste 4 Nordeste 0 -- -- 98
2017-11-03 05:00:00 16.8 2 Norte 5 Norte 0.4 -- -- 99
2017-11-03 04:00:00 16.8 3 Norte 10 Norte 0.2 -- -- 98
2017-11-03 03:00:00 17.1 5 Noroeste 9 Norte 0.2 -- -- 96
2017-11-03 02:00:00 17.7 2 Nordeste 11 Noroeste 0 -- -- 92
2017-11-03 01:00:00 19.4 8 Oeste 16 Oeste 0 -- -- 89
2017-11-03 00:00:00 18.8 7 Sur 25 Sudoeste 0.2 -- -- 85
2017-11-02 23:00:00 20.1 9 Sudoeste 19 Sudoeste 0 -- -- 84
2017-11-02 22:00:00 20 4 Sudoeste 18 Sudoeste 0 -- -- 81
2017-11-02 21:00:00 19.9 8 Sudoeste 16 Sudoeste 0 -- -- 82
2017-11-02 20:00:00 19.9 6 Sudoeste 16 Sur 0 -- -- 80
2017-11-02 19:00:00 20.1 7 Sudoeste 15 Sudoeste 0 -- -- 80
2017-11-02 18:00:00 20.5 9 Sudoeste 17 Oeste 0 -- -- 75
2017-11-02 17:00:00 21.2 10 Oeste 19 Oeste 0 -- -- 75
2017-11-02 16:00:00 21.8 13 Oeste 21 Oeste 0 -- -- 71
2017-11-02 15:00:00 21.4 14 Oeste 23 Oeste 0 -- -- 73
2017-11-02 14:00:00 20.9 13 Sudoeste 29 Sudoeste 0 -- -- 80
2017-11-02 13:00:00 21.1 13 Sudoeste 27 Sudoeste 0 -- -- 80
2017-11-02 12:00:00 21.6 12 Sudoeste 27 Sudoeste 0 -- -- 75
2017-11-02 11:00:00 22.1 14 Sudoeste 27 Sudoeste 0 -- -- 68
2017-11-02 10:00:00 21.1 12 Sudoeste 23 Sudoeste 0 -- -- 75
2017-11-02 09:00:00 20 7 Oeste 22 Sur 0 -- -- 79
2017-11-02 08:00:00 20 13 Sudoeste 23 Sur 0 -- -- 81
2017-11-02 07:00:00 19.7 10 Sudoeste 19 Oeste 0 -- -- 80
2017-11-02 06:00:00 19.6 10 Sudoeste 21 Sudoeste 0 -- -- 87
2017-11-02 05:00:00 19.5 9 Sudoeste 23 Sudoeste 0 -- -- 88
2017-11-02 04:00:00 20 13 Sudoeste 36 Sudoeste 0 -- -- 85
2017-11-02 03:00:00 20.3 21 Sur 38 Sudoeste 0 -- -- 85
2017-11-02 02:00:00 20.2 20 Sudoeste 36 Sudoeste 0 -- -- 85
2017-11-02 01:00:00 20.1 18 Sur 40 Sur 0 -- -- 87
2017-11-02 00:00:00 20.2 20 Sudoeste 36 Sudoeste 0 -- -- 86
2017-11-01 23:00:00 20.3 13 Sudoeste 29 Sur 0 -- -- 87
2017-11-01 22:00:00 20.4 14 Sudoeste 28 Oeste 0 -- -- 86
2017-11-01 21:00:00 20.4 15 Sudoeste 29 Sudoeste 0 -- -- 87
2017-11-01 20:00:00 20.3 14 Sudoeste 32 Sudoeste 0 -- -- 87
2017-11-01 19:00:00 20.5 14 Sudoeste 31 Sudoeste 0 -- -- 88
2017-11-01 18:00:00 21 15 Sudoeste 31 Sudoeste 0 -- -- 86
2017-11-01 17:00:00 22.3 15 Sudoeste 28 Sudoeste 0 -- -- 79
2017-11-01 16:00:00 22.6 9 Sudoeste 15 Sudoeste 0 -- -- 77
2017-11-01 15:00:00 22.9 9 Sudoeste 18 Sur 0 -- -- 73
2017-11-01 14:00:00 21.8 12 Sur 23 Sur 0 -- -- 76
2017-11-01 13:00:00 22.2 16 Sur 30 Sur 0 -- -- 73
2017-11-01 12:00:00 22 16 Sur 32 Sudeste 0 -- -- 73
2017-11-01 11:00:00 20.7 12 Sudeste 22 Sudeste 0 -- -- 73
2017-11-01 10:00:00 17.3 8 Este 17 Este 0 -- -- 81
2017-11-01 09:00:00 13.8 8 Este 13 Este 0 -- -- 93
2017-11-01 08:00:00 12.1 6 Este 13 Este 0 -- -- 96
2017-11-01 07:00:00 12.3 7 Este 11 Este 0 -- -- 97
2017-11-01 06:00:00 12.4 7 Este 12 Este 0 -- -- 98
2017-11-01 05:00:00 12.6 7 Este 11 Este 0 -- -- 98
2017-11-01 04:00:00 13.3 7 Este 12 Este 0 -- -- 96
2017-11-01 03:00:00 13.4 8 Este 12 Este 0 -- -- 95
2017-11-01 02:00:00 14.4 5 Nordeste 10 Nordeste 0 -- -- 92
2017-11-01 01:00:00 18.9 6 Sudeste 22 Sur 0 -- -- 81
2017-11-01 00:00:00 19.1 9 Sur 25 Sur 0 -- -- 82
2017-10-31 23:00:00 12.9 4 Sur 8 Sur 0 -- -- 94
2017-10-31 22:00:00 13.9 2 Nordeste 5 Nordeste 0 -- -- 92
2017-10-31 21:00:00 15.3 4 Norte 6 Nordeste 0 -- -- 89
2017-10-31 20:00:00 16.6 4 Norte 6 Noroeste 0 -- -- 86
2017-10-31 19:00:00 19.8 4 Noroeste 11 Noroeste 0 -- -- 79
2017-10-31 18:00:00 22.2 8 Oeste 13 Oeste 0 -- -- 70
2017-10-31 17:00:00 23.3 8 Oeste 14 Oeste 0 -- -- 64
2017-10-31 16:00:00 23.9 8 Sudoeste 15 Sudoeste 0 -- -- 61
2017-10-31 15:00:00 23.5 9 Sudoeste 19 Sur 0 -- -- 61
2017-10-31 14:00:00 23.4 8 Sur 17 Sur 0 -- -- 59
2017-10-31 13:00:00 23.6 10 Sur 20 Sur 0 -- -- 57
2017-10-31 12:00:00 22.4 9 Sudeste 17 Sudeste 0 -- -- 60
2017-10-31 11:00:00 19.7 8 Este 15 Este 0 -- -- 72
2017-10-31 10:00:00 16.1 9 Este 15 Este 0 -- -- 83
2017-10-31 09:00:00 13.1 8 Nordeste 14 Este 0 -- -- 99
2017-10-31 08:00:00 12.1 7 Nordeste 11 Nordeste 0 -- -- 100
2017-10-31 07:00:00 12.9 6 Este 13 Este 0 -- -- 100
2017-10-31 06:00:00 12.7 7 Nordeste 12 Este 0 -- -- 100
2017-10-31 05:00:00 11.9 6 Nordeste 9 Este 0 -- -- 100
2017-10-31 04:00:00 11.6 5 Nordeste 8 Nordeste 0 -- -- 100
2017-10-31 03:00:00 11.3 4 Nordeste 7 Nordeste 0 -- -- 100
2017-10-31 02:00:00 11.5 4 Nordeste 6 Nordeste 0 -- -- 100
2017-10-31 01:00:00 11.9 4 Nordeste 7 Este 0 -- -- 99
2017-10-31 00:00:00 13.3 5 Este 10 Este 0 -- -- 100
2017-10-30 23:00:00 14 5 Este 8 Este 0 -- -- 99
2017-10-30 22:00:00 14.7 5 Nordeste 12 Nordeste 0 -- -- 98
2017-10-30 21:00:00 15.5 6 Nordeste 12 Nordeste 0 -- -- 97
2017-10-30 20:00:00 16.2 5 Nordeste 8 Nordeste 0 -- -- 95
2017-10-30 19:00:00 18.4 4 Noroeste 13 Oeste 0 -- -- 89
2017-10-30 18:00:00 20.7 8 Oeste 16 Oeste 0 -- -- 84
2017-10-30 17:00:00 21.4 10 Oeste 15 Oeste 0 -- -- 80
2017-10-30 16:00:00 21.9 8 Sudoeste 15 Sudoeste 0 -- -- 78
2017-10-30 15:00:00 22.2 9 Sur 16 Sudoeste 0 -- -- 77
2017-10-30 14:00:00 22.2 9 Sur 17 Sur 0 -- -- 76
2017-10-30 13:00:00 21.9 8 Sur 18 Sudeste 0 -- -- 77
2017-10-30 12:00:00 21.6 9 Sur 17 Sur 0 -- -- 78
2017-10-30 11:00:00 20.6 10 Sudeste 17 Sur 0 -- -- 81
2017-10-30 10:00:00 17.3 8 Este 14 Este 0 -- -- 91
2017-10-30 09:00:00 13.8 6 Este 11 Este 0 -- -- 100
2017-10-30 08:00:00 12.1 6 Este 12 Este 0 -- -- 99
2017-10-30 07:00:00 12.1 5 Este 11 Este 0 -- -- 100
2017-10-30 06:00:00 11.2 6 Este 10 Nordeste 0 -- -- 99
2017-10-30 05:00:00 11.2 6 Nordeste 13 Nordeste 0 -- -- 97
2017-10-30 04:00:00 11 8 Nordeste 11 Nordeste 0 -- -- 100
2017-10-30 03:00:00 10.5 4 Nordeste 5 Este 0 -- -- 97
2017-10-30 02:00:00 11.9 5 Nordeste 9 Nordeste 0 -- -- 96
2017-10-30 01:00:00 12.4 5 Nordeste 8 Nordeste 0 -- -- 96
2017-10-30 00:00:00 14.1 4 Este 10 Norte 0 -- -- 95
2017-10-29 23:00:00 14.3 3 Norte 8 Noroeste 0 -- -- 95
2017-10-29 22:00:00 15.2 4 Norte 9 Noroeste 0 -- -- 93
2017-10-29 21:00:00 16.3 5 Noroeste 10 Norte 0 -- -- 92
2017-10-29 20:00:00 18.1 4 Noroeste 11 Noroeste 0 -- -- 85
2017-10-29 19:00:00 20 7 Noroeste 17 Noroeste 0 -- -- 80
2017-10-29 18:00:00 22.6 8 Oeste 17 Oeste 0 -- -- 66
2017-10-29 17:00:00 23.3 11 Oeste 16 Oeste 0 -- -- 65
2017-10-29 16:00:00 23.7 9 Oeste 14 Oeste 0 -- -- 64
2017-10-29 15:00:00 24.1 7 Sudoeste 13 Sudoeste 0 -- -- 61
2017-10-29 14:00:00 23.6 8 Oeste 13 Oeste 0 -- -- 60
2017-10-29 13:00:00 22.9 7 Sudoeste 13 Sudoeste 0 -- -- 63
2017-10-29 12:00:00 22.4 7 Sur 11 Sur 0 -- -- 64
2017-10-29 11:00:00 20.2 4 Sudeste 13 Nordeste 0 -- -- 69
2017-10-29 10:00:00 16.3 9 Este 15 Este 0 -- -- 85
2017-10-29 09:00:00 13.2 8 Este 14 Este 0 -- -- 100
2017-10-29 08:00:00 11.6 8 Nordeste 14 Nordeste 0 -- -- 100
2017-10-29 07:00:00 11.8 7 Nordeste 11 Este 0 -- -- 100
2017-10-29 06:00:00 12.2 7 Este 11 Este 0 -- -- 100
2017-10-29 05:00:00 12.7 6 Nordeste 10 Nordeste 0 -- -- 100
2017-10-29 04:00:00 12.6 5 Nordeste 10 Este 0 -- -- 100
2017-10-29 03:00:00 12.9 5 Este 8 Este 0 -- -- 100
2017-10-29 02:00:00 12.7 4 Norte 6 Norte 0 -- -- 99
2017-10-29 01:00:00 13.9 4 Nordeste 7 Norte 0 -- -- 99
2017-10-29 00:00:00 14.1 5 Norte 7 Norte 0 -- -- 98
2017-10-28 23:00:00 14.6 4 Norte 6 Norte 0 -- -- 97
2017-10-28 22:00:00 15.8 4 Noroeste 6 Noroeste 0 -- -- 95
2017-10-28 21:00:00 17.7 4 Noroeste 12 Oeste 0 -- -- 91
2017-10-28 20:00:00 20.2 8 Oeste 17 Oeste 0 -- -- 89
2017-10-28 19:00:00 21.7 9 Oeste 20 Oeste 0 -- -- 82
2017-10-28 18:00:00 22.6 13 Oeste 22 Oeste 0 -- -- 76
2017-10-28 17:00:00 24.3 12 Sudoeste 22 Sudoeste 0 -- -- 61
2017-10-28 16:00:00 25.1 9 Sudoeste 14 Sudoeste 0 -- -- 55
2017-10-28 15:00:00 25.6 6 Sudoeste 17 Sur 0 -- -- 47
2017-10-28 14:00:00 24.6 9 Sudoeste 14 Sudoeste 0 -- -- 46
2017-10-28 13:00:00 24.2 5 Sudoeste 13 Oeste 0 -- -- 52
2017-10-28 12:00:00 24.3 6 Este 10 Este 0 -- -- 41
2017-10-28 11:00:00 19.9 5 Nordeste 10 Nordeste 0 -- -- 57
2017-10-28 10:00:00 14 3 Este 8 Nordeste 0 -- -- 75
2017-10-28 09:00:00 12 7 Nordeste 13 Nordeste 0 -- -- 77
2017-10-28 08:00:00 11.2 7 Nordeste 11 Este 0 -- -- 82
2017-10-28 07:00:00 10.8 6 Nordeste 10 Este 0 -- -- 85
2017-10-28 06:00:00 9.7 5 Norte 8 Norte 0 -- -- 93
2017-10-28 05:00:00 10.3 6 Nordeste 10 Este 0 -- -- 91
2017-10-28 04:00:00 10.5 2 Sudeste 6 Este 0 -- -- 92
2017-10-28 03:00:00 11 4 Nordeste 9 Norte 0 -- -- 91
2017-10-28 02:00:00 11.2 3 Noroeste 8 Nordeste 0 -- -- 91
2017-10-28 01:00:00 12.1 6 Nordeste 8 Nordeste 0 -- -- 91
2017-10-28 00:00:00 12.6 5 Este 7 Este 0 -- -- 90
2017-10-27 23:00:00 14 5 Norte 9 Norte 0 -- -- 86
2017-10-27 22:00:00 14.7 5 Norte 6 Norte 0 -- -- 83
2017-10-27 21:00:00 16.2 5 Noroeste 8 Noroeste 0 -- -- 78
2017-10-27 20:00:00 19.7 4 Noroeste 6 Noroeste 0 -- -- 69
2017-10-27 19:00:00 24.2 5 Oeste 9 Oeste 0 -- -- 54
2017-10-27 18:00:00 24.6 6 Oeste 13 Oeste 0 -- -- 51
2017-10-27 17:00:00 24.8 9 Oeste 15 Oeste 0 -- -- 56
2017-10-27 16:00:00 24.8 9 Oeste 15 Sudoeste 0 -- -- 53
2017-10-27 15:00:00 25.2 8 Sudoeste 13 Sudoeste 0 -- -- 55
2017-10-27 14:00:00 26 9 Sudoeste 17 Este 0 -- -- 51
2017-10-27 13:00:00 26 8 Este 17 Sudeste 0 -- -- 40
2017-10-27 12:00:00 23.7 8 Este 18 Este 0 -- -- 46
2017-10-27 11:00:00 20.2 10 Este 17 Este 0 -- -- 54
2017-10-27 10:00:00 16.4 9 Este 18 Este 0 -- -- 64
2017-10-27 09:00:00 13.5 8 Este 15 Este 0 -- -- 73
2017-10-27 08:00:00 12.5 5 Nordeste 12 Este 0 -- -- 78
2017-10-27 07:00:00 9.8 7 Nordeste 11 Este 0 -- -- 89
2017-10-27 06:00:00 10.3 6 Nordeste 10 Este 0 -- -- 85
2017-10-27 05:00:00 10.5 8 Nordeste 10 Nordeste 0 -- -- 85
2017-10-27 04:00:00 10.8 5 Nordeste 7 Nordeste 0 -- -- 83
2017-10-27 03:00:00 11.9 6 Nordeste 9 Nordeste 0 -- -- 79
2017-10-27 02:00:00 13 6 Nordeste 8 Nordeste 0 -- -- 78
2017-10-27 01:00:00 15.8 7 Nordeste 12 Nordeste 0 -- -- 63
2017-10-27 00:00:00 16.3 8 Nordeste 12 Este 0 -- -- 61
2017-10-26 23:00:00 16.3 7 Nordeste 11 Nordeste 0 -- -- 62
2017-10-26 22:00:00 16.4 7 Nordeste 10 Este 0 -- -- 67
2017-10-26 21:00:00 18.3 6 Nordeste 9 Nordeste 0 -- -- 68
2017-10-26 20:00:00 20.3 4 Norte 6 Norte 0 -- -- 68
2017-10-26 19:00:00 25.7 2 Oeste 6 Oeste 0 -- -- 52
2017-10-26 18:00:00 26.3 4 Oeste 12 Sudoeste 0 -- -- 50
2017-10-26 17:00:00 26.1 6 Sudoeste 13 Oeste 0 -- -- 51
2017-10-26 16:00:00 26.9 6 Sudoeste 14 Sudoeste 0 -- -- 46
2017-10-26 15:00:00 27.5 8 Sudoeste 17 Sudeste 0 -- -- 41
2017-10-26 14:00:00 27.3 7 Sudeste 18 Sudeste 0 -- -- 38
2017-10-26 13:00:00 25.2 9 Este 21 Este 0 -- -- 42
2017-10-26 12:00:00 22.4 10 Este 23 Este 0 -- -- 53
2017-10-26 11:00:00 19 11 Este 21 Este 0 -- -- 65
2017-10-26 10:00:00 15.2 8 Este 14 Nordeste 0 -- -- 82
2017-10-26 09:00:00 11.8 8 Nordeste 12 Nordeste 0 -- -- 95
2017-10-26 08:00:00 12 7 Nordeste 10 Este 0 -- -- 96
2017-10-26 07:00:00 12.5 7 Nordeste 10 Este 0 -- -- 97
2017-10-26 06:00:00 13.3 6 Nordeste 10 Nordeste 0 -- -- 96
2017-10-26 05:00:00 13.8 7 Nordeste 14 Nordeste 0 -- -- 97
2017-10-26 04:00:00 14.1 7 Este 11 Este 0 -- -- 98
2017-10-26 03:00:00 13.8 6 Este 10 Nordeste 0 -- -- 99
2017-10-26 02:00:00 13.6 6 Este 8 Este 0 -- -- 100
2017-10-26 01:00:00 13.9 6 Nordeste 7 Nordeste 0 -- -- 98
2017-10-26 00:00:00 14.1 6 Nordeste 7 Este 0 -- -- 97
2017-10-25 23:00:00 14.7 5 Nordeste 7 Nordeste 0 -- -- 96
2017-10-25 22:00:00 15.7 5 Nordeste 6 Este 0 -- -- 94
2017-10-25 21:00:00 17.8 4 Noroeste 6 Norte 0 -- -- 89
2017-10-25 20:00:00 20.1 4 Noroeste 10 Oeste 0 -- -- 82
2017-10-25 19:00:00 22.5 8 Noroeste 14 Oeste 0 -- -- 72
2017-10-25 18:00:00 23.3 9 Oeste 15 Oeste 0 -- -- 66
2017-10-25 17:00:00 24.3 7 Sudoeste 15 Sur 0 -- -- 59
2017-10-25 16:00:00 24.3 9 Sudoeste 16 Sur 0 -- -- 59
2017-10-25 15:00:00 24 10 Sudoeste 23 Sur 0 -- -- 59
2017-10-25 14:00:00 23.7 14 Sur 27 Sudeste 0 -- -- 57
2017-10-25 13:00:00 23.4 15 Sur 27 Sur 0 -- -- 53
2017-10-25 12:00:00 21.9 10 Sudeste 19 Sudeste 0 -- -- 52
2017-10-25 11:00:00 17.6 7 Este 18 Este 0 -- -- 73
2017-10-25 10:00:00 13.7 8 Este 13 Este 0 -- -- 86
2017-10-25 09:00:00 11.3 7 Este 11 Este 0 -- -- 93
2017-10-25 08:00:00 11.4 7 Este 13 Nordeste 0 -- -- 95
2017-10-25 07:00:00 11.7 7 Nordeste 12 Este 0 -- -- 96
2017-10-25 06:00:00 11.9 6 Nordeste 11 Este 0 -- -- 98
2017-10-25 05:00:00 12.2 7 Este 10 Este 0 -- -- 97
2017-10-25 04:00:00 12.6 6 Este 9 Este 0 -- -- 98
2017-10-25 03:00:00 12.6 5 Nordeste 8 Nordeste 0 -- -- 97
2017-10-25 02:00:00 13.5 5 Nordeste 11 Este 0 -- -- 98
2017-10-25 01:00:00 13.4 6 Este 8 Este 0 -- -- 97
2017-10-25 00:00:00 13.3 3 Este 6 Sur 0 -- -- 95